createdAt,value
2022-08-14T00:00:12.273Z,100548.39
2022-08-14T00:03:06.318Z,100560.11
2022-08-14T00:05:39.350Z,100558.04
2022-08-14T00:08:16.882Z,100555.24
2022-08-14T00:11:09.453Z,100553.69
2022-08-14T00:13:43.240Z,100549.33
2022-08-14T00:16:41.090Z,100550.04
2022-08-14T00:19:19.258Z,100544.70
2022-08-14T00:21:52.878Z,100541.75
2022-08-14T00:24:29.172Z,100545.06
2022-08-14T00:27:02.963Z,100540.96
2022-08-14T00:29:40.438Z,100545.84
2022-08-14T00:32:52.369Z,100541.61
2022-08-14T00:35:09.252Z,100538.98
2022-08-14T00:37:46.286Z,100538.35
2022-08-14T00:40:33.027Z,100532.70
2022-08-14T00:43:08.172Z,100538.30
2022-08-14T00:45:41.288Z,100539.53
2022-08-14T00:48:13.544Z,100537.21
2022-08-14T00:51:09.000Z,100525.66
2022-08-14T00:53:42.997Z,100529.98
2022-08-14T00:56:15.523Z,100526.79
2022-08-14T00:58:48.546Z,100526.79
2022-08-14T01:01:21.114Z,100520.88
2022-08-14T01:03:55.845Z,100520.04
2022-08-14T01:06:30.175Z,100525.73
2022-08-14T01:09:07.044Z,100523.55
2022-08-14T01:11:41.477Z,100516.48
2022-08-14T01:14:25.525Z,100521.98
2022-08-14T01:17:00.869Z,100512.47
2022-08-14T01:19:53.832Z,100527.00
2022-08-14T01:22:27.163Z,100523.64
2022-08-14T01:25:01.914Z,100516.23
2022-08-14T01:27:53.440Z,100515.20
2022-08-14T01:30:35.413Z,100505.59
2022-08-14T01:33:12.960Z,100506.32
2022-08-14T01:36:03.310Z,100506.36
2022-08-14T01:38:40.235Z,100504.52
2022-08-14T01:41:19.859Z,100507.15
2022-08-14T01:44:01.000Z,100507.94
2022-08-14T01:46:36.953Z,100510.27
2022-08-14T01:49:16.607Z,100509.22
2022-08-14T01:51:54.373Z,100507.90
2022-08-14T01:54:38.305Z,100496.27
2022-08-14T01:57:11.686Z,100507.42
2022-08-14T01:59:45.166Z,100503.29
2022-08-14T02:02:19.796Z,100497.89
2022-08-14T02:04:56.811Z,100510.29
2022-08-14T02:07:44.925Z,100509.48
2022-08-14T02:10:29.082Z,100510.19
2022-08-14T02:13:05.660Z,100506.34
2022-08-14T02:15:41.439Z,100505.50
2022-08-14T02:18:16.613Z,100510.26
2022-08-14T02:20:51.368Z,100512.07
2022-08-14T02:23:30.536Z,100512.10
2022-08-14T02:26:24.418Z,100506.81
2022-08-14T02:29:00.773Z,100489.30
2022-08-14T02:31:43.488Z,100496.27
2022-08-14T02:34:22.090Z,100493.46
2022-08-14T02:37:06.385Z,100494.77
2022-08-14T02:39:41.910Z,100489.95
2022-08-14T02:42:16.208Z,100485.06
2022-08-14T02:44:55.665Z,100485.35
2022-08-14T02:47:28.526Z,100483.67
2022-08-14T02:50:01.254Z,100482.29
2022-08-14T02:52:56.091Z,100480.90
2022-08-14T02:55:27.775Z,100482.17
2022-08-14T02:58:03.662Z,100478.46
2022-08-14T03:00:40.133Z,100473.84
2022-08-14T03:03:13.559Z,100474.80
2022-08-14T03:05:51.481Z,100476.73
2022-08-14T03:08:33.363Z,100478.98
2022-08-14T03:11:09.442Z,100476.42
2022-08-14T03:13:44.256Z,100476.36
2022-08-14T03:16:20.152Z,100474.08
2022-08-14T03:19:00.701Z,100476.93
2022-08-14T03:21:33.410Z,100476.98
2022-08-14T03:24:21.702Z,100480.67
2022-08-14T03:26:57.584Z,100476.34
2022-08-14T03:29:30.506Z,100488.27
2022-08-14T03:32:03.543Z,100491.71
2022-08-14T03:34:52.571Z,100487.23
2022-08-14T03:37:37.816Z,100483.03
2022-08-14T03:40:19.855Z,100478.88
2022-08-14T03:42:52.203Z,100473.55
2022-08-14T03:45:35.034Z,100478.24
2022-08-14T03:48:30.323Z,100475.55
2022-08-14T03:51:04.193Z,100464.23
2022-08-14T03:53:42.167Z,100463.91
2022-08-14T03:56:18.024Z,100458.15
2022-08-14T03:58:55.766Z,100456.95
2022-08-14T04:01:39.208Z,100459.67
2022-08-14T04:04:18.067Z,100457.23
2022-08-14T04:06:51.800Z,100455.15
2022-08-14T04:09:26.663Z,100458.17
2022-08-14T04:12:00.063Z,100461.55
2022-08-14T04:14:37.299Z,100456.42
2022-08-14T04:17:11.358Z,100458.27
2022-08-14T04:19:46.372Z,100454.09
2022-08-14T04:22:21.985Z,100460.17
2022-08-14T04:24:54.784Z,100458.79
2022-08-14T04:27:28.381Z,100459.36
2022-08-14T04:30:02.849Z,100456.58
2022-08-14T04:33:02.735Z,100451.39
2022-08-14T04:35:50.727Z,100443.98
2022-08-14T04:38:41.959Z,100442.58
2022-08-14T04:41:31.766Z,100443.48
2022-08-14T04:44:05.013Z,100439.41
2022-08-14T04:46:56.638Z,100438.40
2022-08-14T04:49:30.358Z,100440.34
2022-08-14T04:52:15.245Z,100414.79
2022-08-14T04:54:51.056Z,100431.88
2022-08-14T04:57:23.091Z,100435.84
2022-08-14T04:59:55.335Z,100437.64
2022-08-14T05:02:28.542Z,100439.55
2022-08-14T05:05:01.286Z,100443.57
2022-08-14T05:07:46.257Z,100441.69
2022-08-14T05:10:32.158Z,100444.37
2022-08-14T05:13:12.938Z,100438.54
2022-08-14T05:15:48.988Z,100431.13
2022-08-14T05:18:52.918Z,100440.16
2022-08-14T05:22:00.484Z,100441.42
2022-08-14T05:24:17.783Z,100440.76
2022-08-14T05:26:51.044Z,100438.30
2022-08-14T05:29:23.906Z,100437.75
2022-08-14T05:31:58.251Z,100443.16
2022-08-14T05:34:31.946Z,100440.57
2022-08-14T05:37:06.841Z,100442.13
2022-08-14T05:39:40.892Z,100440.69
2022-08-14T05:42:22.032Z,100448.30
2022-08-14T05:44:59.582Z,100444.41
2022-08-14T05:47:39.082Z,100448.58
2022-08-14T05:50:17.238Z,100440.80
2022-08-14T05:52:53.092Z,100439.91
2022-08-14T05:55:26.844Z,100439.17
2022-08-14T05:58:03.321Z,100434.30
2022-08-14T06:00:39.782Z,100434.37
2022-08-14T06:03:14.924Z,100431.38
2022-08-14T06:05:48.567Z,100427.35
2022-08-14T06:08:41.036Z,100426.52
2022-08-14T06:11:20.051Z,100426.66
2022-08-14T06:13:56.632Z,100415.80
2022-08-14T06:16:29.022Z,100413.37
2022-08-14T06:19:06.671Z,100409.88
2022-08-14T06:21:43.607Z,100398.58
2022-08-14T06:24:18.317Z,100412.12
2022-08-14T06:26:56.930Z,100411.33
2022-08-14T06:29:38.010Z,100409.08
2022-08-14T06:32:38.664Z,100406.66
2022-08-14T06:35:12.160Z,100406.48
2022-08-14T06:37:48.915Z,100399.26
2022-08-14T06:40:27.786Z,100396.58
2022-08-14T06:43:03.402Z,100402.16
2022-08-14T06:45:38.742Z,100401.77
2022-08-14T06:48:18.009Z,100400.38
2022-08-14T06:50:55.042Z,100403.24
2022-08-14T06:53:27.649Z,100399.13
2022-08-14T06:56:02.435Z,100400.48
2022-08-14T06:58:35.808Z,100382.63
2022-08-14T07:01:27.596Z,100391.59
2022-08-14T07:04:23.853Z,100391.14
2022-08-14T07:06:59.135Z,100391.48
2022-08-14T07:09:43.897Z,100389.21
2022-08-14T07:12:54.186Z,100392.30
2022-08-14T07:15:16.277Z,100388.67
2022-08-14T07:17:54.045Z,100387.48
2022-08-14T07:20:30.595Z,100391.40
2022-08-14T07:23:09.281Z,100391.11
2022-08-14T07:25:53.540Z,100390.11
2022-08-14T07:28:28.030Z,100387.20
2022-08-14T07:31:05.073Z,100376.98
2022-08-14T07:33:41.937Z,100370.11
2022-08-14T07:36:27.651Z,100383.10
2022-08-14T07:39:12.214Z,100388.13
2022-08-14T07:41:45.449Z,100387.84
2022-08-14T07:44:32.162Z,100391.84
2022-08-14T07:47:07.897Z,100395.28
2022-08-14T07:49:41.252Z,100364.60
2022-08-14T07:52:15.541Z,100395.11
2022-08-14T07:54:54.842Z,100392.63
2022-08-14T07:57:28.270Z,100385.98
2022-08-14T08:00:01.415Z,100380.42
2022-08-14T08:02:46.339Z,100378.45
2022-08-14T08:05:20.331Z,100375.27
2022-08-14T08:07:54.702Z,100373.10
2022-08-14T08:11:01.675Z,100368.58
2022-08-14T08:13:28.638Z,100365.42
2022-08-14T08:16:03.477Z,100359.82
2022-08-14T08:18:36.302Z,100345.60
2022-08-14T08:21:09.484Z,100344.98
2022-08-14T08:23:51.382Z,100352.11
2022-08-14T08:26:29.780Z,100350.87
2022-08-14T08:29:02.179Z,100344.68
2022-08-14T08:31:36.639Z,100343.67
2022-08-14T08:34:14.269Z,100345.81
2022-08-14T08:36:50.689Z,100347.72
2022-08-14T08:39:23.258Z,100334.42
2022-08-14T08:41:55.857Z,100350.46
2022-08-14T08:44:34.371Z,100355.08
2022-08-14T08:47:08.123Z,100353.70
2022-08-14T08:49:52.591Z,100350.02
2022-08-14T08:52:32.355Z,100342.73
2022-08-14T08:55:05.267Z,100341.81
2022-08-14T08:57:38.980Z,100333.17
2022-08-14T09:00:24.979Z,100326.20
2022-08-14T09:03:03.311Z,100321.55
2022-08-14T09:05:38.467Z,100312.72
2022-08-14T09:08:26.561Z,100309.49
2022-08-14T09:11:19.000Z,100291.66
2022-08-14T09:13:54.985Z,100300.61
2022-08-14T09:16:27.805Z,100303.14
2022-08-14T09:19:00.495Z,100298.45
2022-08-14T09:21:34.794Z,100302.85
2022-08-14T09:24:28.588Z,100304.64
2022-08-14T09:27:00.982Z,100301.98
2022-08-14T09:29:33.256Z,100300.33
2022-08-14T09:32:10.127Z,100292.18
2022-08-14T09:35:14.219Z,100289.87
2022-08-14T09:37:56.403Z,100284.79
2022-08-14T09:40:40.767Z,100284.83
2022-08-14T09:43:26.087Z,100279.36
2022-08-14T09:46:01.097Z,100275.09
2022-08-14T09:48:35.504Z,100274.11
2022-08-14T09:51:25.485Z,100273.41
2022-08-14T09:54:17.692Z,100261.86
2022-08-14T09:56:57.224Z,100264.52
2022-08-14T09:59:50.442Z,100266.06
2022-08-14T10:02:25.274Z,100264.14
2022-08-14T10:05:08.694Z,100261.13
2022-08-14T10:07:53.873Z,100252.96
2022-08-14T10:10:34.998Z,100252.89
2022-08-14T10:13:21.395Z,100253.93
2022-08-14T10:16:01.726Z,100252.23
2022-08-14T10:18:34.801Z,100254.31
2022-08-14T10:21:09.839Z,100249.04
2022-08-14T10:23:49.891Z,100246.41
2022-08-14T10:26:28.181Z,100234.16
2022-08-14T10:29:19.291Z,100246.41
2022-08-14T10:32:00.989Z,100243.58
2022-08-14T10:34:40.854Z,100240.54
2022-08-14T10:37:16.933Z,100242.44
2022-08-14T10:40:10.584Z,100246.11
2022-08-14T10:42:47.251Z,100247.99
2022-08-14T10:45:25.709Z,100249.01
2022-08-14T10:48:08.081Z,100252.63
2022-08-14T10:50:50.481Z,100232.80
2022-08-14T10:53:39.903Z,100250.97
2022-08-14T10:56:21.529Z,100247.92
2022-08-14T10:59:08.828Z,100248.20
2022-08-14T11:01:43.134Z,100238.98
2022-08-14T11:04:30.833Z,100239.34
2022-08-14T11:07:05.875Z,100234.85
2022-08-14T11:09:41.765Z,100230.27
2022-08-14T11:12:39.982Z,100226.71
2022-08-14T11:15:07.776Z,100225.03
2022-08-14T11:17:40.339Z,100216.19
2022-08-14T11:20:20.351Z,100208.52
2022-08-14T11:22:58.943Z,100210.28
2022-08-14T11:25:36.846Z,100200.97
2022-08-14T11:28:19.178Z,100205.14
2022-08-14T11:30:54.621Z,100207.24
2022-08-14T11:33:31.196Z,100206.45
2022-08-14T11:36:18.064Z,100204.27
2022-08-14T11:38:51.503Z,100190.25
2022-08-14T11:41:27.281Z,100187.01
2022-08-14T11:43:59.907Z,100184.30
2022-08-14T11:46:37.715Z,100180.67
2022-08-14T11:49:12.352Z,100178.88
2022-08-14T11:51:55.751Z,100174.95
2022-08-14T11:54:35.566Z,100176.76
2022-08-14T11:57:14.553Z,100172.95
2022-08-14T12:00:01.364Z,100170.79
2022-08-14T12:03:02.555Z,100171.09
2022-08-14T12:05:40.238Z,100169.00
2022-08-14T12:08:13.481Z,100166.58
2022-08-14T12:10:46.685Z,100168.16
2022-08-14T12:13:22.362Z,100165.66
2022-08-14T12:16:06.398Z,100165.94
2022-08-14T12:18:45.549Z,100158.67
2022-08-14T12:21:19.435Z,100156.25
2022-08-14T12:24:04.239Z,100150.85
2022-08-14T12:26:40.499Z,100145.58
2022-08-14T12:29:16.955Z,100138.40
2022-08-14T12:32:12.579Z,100134.45
2022-08-14T12:34:53.739Z,100150.60
2022-08-14T12:37:33.483Z,100154.84
2022-08-14T12:40:20.798Z,100166.27
2022-08-14T12:42:56.685Z,100167.91
2022-08-14T12:45:35.402Z,100160.10
2022-08-14T12:48:21.160Z,100154.13
2022-08-14T12:51:00.546Z,100152.02
2022-08-14T12:53:39.165Z,100147.95
2022-08-14T12:56:22.486Z,100149.90
2022-08-14T12:59:06.069Z,100140.34
2022-08-14T13:02:00.026Z,100137.95
2022-08-14T13:04:35.415Z,100126.04
2022-08-14T13:07:08.577Z,100125.67
2022-08-14T13:09:41.110Z,100119.16
2022-08-14T13:12:33.367Z,100116.23
2022-08-14T13:15:09.576Z,100113.55
2022-08-14T13:18:29.870Z,100110.53
2022-08-14T13:25:55.967Z,100099.79
2022-08-14T13:28:32.978Z,100096.73
2022-08-14T13:31:11.802Z,100098.04
2022-08-14T13:33:43.987Z,100096.72
2022-08-14T13:36:24.030Z,100092.48
2022-08-14T13:39:16.531Z,100085.41
2022-08-14T13:46:00.317Z,100067.90
2022-08-14T13:52:51.652Z,100052.15
2022-08-14T13:56:14.466Z,100056.40
2022-08-14T13:59:20.523Z,100054.06
2022-08-14T14:02:13.852Z,100055.91
2022-08-14T14:05:07.634Z,100047.56
2022-08-14T14:07:48.540Z,100050.60
2022-08-14T14:10:28.721Z,100045.27
2022-08-14T14:13:02.921Z,100041.53
2022-08-14T14:15:48.580Z,100041.20
2022-08-14T14:18:34.686Z,100039.52
2022-08-14T14:21:19.412Z,100036.86
2022-08-14T14:23:55.575Z,100034.23
2022-08-14T14:26:55.439Z,100035.61
2022-08-14T14:29:37.512Z,100029.02
2022-08-14T14:32:21.598Z,100022.23
2022-08-14T14:34:56.530Z,100018.27
2022-08-14T14:37:31.175Z,100022.03
2022-08-14T14:40:53.055Z,100022.23
2022-08-14T14:43:05.508Z,100021.28
2022-08-14T14:45:41.428Z,100015.66
2022-08-14T14:48:16.715Z,100017.65
2022-08-14T14:53:52.543Z,100017.71
2022-08-14T14:56:49.750Z,100014.67
2022-08-14T14:59:21.872Z,100014.83
2022-08-14T15:02:07.825Z,100008.86
2022-08-14T15:04:46.434Z,100006.54
2022-08-14T15:07:20.219Z,100000.29
2022-08-14T15:09:54.488Z,99995.61
2022-08-14T15:12:55.198Z,99992.90
2022-08-14T15:15:22.885Z,99974.59
2022-08-14T15:17:55.337Z,99986.05
2022-08-14T15:20:30.613Z,99985.70
2022-08-14T15:23:43.669Z,99981.23
2022-08-14T15:26:24.189Z,99978.20
2022-08-14T15:30:23.749Z,99981.20
2022-08-14T15:34:43.498Z,99983.04
2022-08-14T15:38:00.681Z,99971.18
2022-08-14T15:40:41.390Z,99979.23
2022-08-14T15:43:14.757Z,99969.89
2022-08-14T15:45:48.565Z,99970.39
2022-08-14T15:48:22.326Z,99974.86
2022-08-14T15:50:54.846Z,99982.64
2022-08-14T15:53:31.573Z,99983.17
2022-08-14T15:56:06.168Z,99979.95
2022-08-14T15:58:41.992Z,99976.44
2022-08-14T16:01:43.570Z,99976.89
2022-08-14T16:04:17.457Z,99978.67
2022-08-14T16:06:54.570Z,99977.08
2022-08-14T16:09:27.605Z,99978.00
2022-08-14T16:12:00.490Z,99969.90
2022-08-14T16:14:34.338Z,99965.39
2022-08-14T16:17:08.171Z,99958.42
2022-08-14T16:19:47.771Z,99952.88
2022-08-14T16:22:58.693Z,99936.91
2022-08-14T16:25:18.237Z,99958.48
2022-08-14T16:27:51.799Z,99959.64
2022-08-14T16:30:27.860Z,99959.93
2022-08-14T16:33:02.083Z,99964.23
2022-08-14T16:35:42.740Z,99961.94
2022-08-14T16:38:46.320Z,99966.83
2022-08-14T16:41:30.022Z,99968.16
2022-08-14T16:44:05.580Z,99968.20
2022-08-14T16:46:47.910Z,99961.79
2022-08-14T16:49:20.722Z,99965.44
2022-08-14T16:51:55.524Z,99968.47
2022-08-14T16:54:35.043Z,99970.11
2022-08-14T16:57:22.566Z,99968.75
2022-08-14T16:59:57.709Z,99968.89
2022-08-14T17:02:39.865Z,99970.56
2022-08-14T17:05:24.895Z,99963.86
2022-08-14T17:08:33.474Z,99965.67
2022-08-14T17:11:10.848Z,99968.71
2022-08-14T17:14:00.433Z,99975.52
2022-08-14T17:16:37.104Z,99972.56
2022-08-14T17:19:14.183Z,99967.76
2022-08-14T17:21:52.351Z,99961.77
2022-08-14T17:24:57.089Z,99959.51
2022-08-14T17:27:18.577Z,99958.70
2022-08-14T17:29:57.690Z,99963.52
2022-08-14T17:32:57.599Z,99965.01
2022-08-14T17:35:58.159Z,99971.19
2022-08-14T17:38:33.596Z,99969.48
2022-08-14T17:41:27.085Z,99971.52
2022-08-14T17:44:22.044Z,99956.98
2022-08-14T17:47:10.133Z,99973.39
2022-08-14T17:49:51.721Z,99976.29
2022-08-14T17:52:35.894Z,99982.38
2022-08-14T17:56:00.891Z,99982.39
2022-08-14T17:58:16.553Z,99985.86
2022-08-14T18:00:57.439Z,99976.92
2022-08-14T18:03:50.870Z,99992.98
2022-08-14T18:06:38.279Z,99992.29
2022-08-14T18:09:25.337Z,99992.21
2022-08-14T18:12:03.820Z,99992.73
2022-08-14T18:14:48.822Z,99972.30
2022-08-14T18:17:24.798Z,99994.52
2022-08-14T18:20:01.393Z,99994.23
2022-08-14T18:22:49.656Z,99996.75
2022-08-14T18:25:22.935Z,99998.98
2022-08-14T18:27:57.243Z,100001.31
2022-08-14T18:30:33.570Z,100002.92
2022-08-14T18:33:23.850Z,99997.95
2022-08-14T18:35:58.721Z,99991.41
2022-08-14T18:38:45.871Z,99988.15
2022-08-14T18:41:36.065Z,99992.89
2022-08-14T18:44:10.847Z,99994.13
2022-08-14T18:47:18.665Z,99998.11
2022-08-14T18:50:27.170Z,99998.17
2022-08-14T18:53:07.614Z,100003.29
2022-08-14T18:55:55.497Z,100007.36
2022-08-14T18:58:33.945Z,100005.20
2022-08-14T19:01:06.867Z,100005.85
2022-08-14T19:03:56.285Z,100010.37
2022-08-14T19:06:56.172Z,100019.85
2022-08-14T19:09:58.042Z,100021.34
2022-08-14T19:13:11.546Z,100018.70
2022-08-14T19:15:56.587Z,100015.18
2022-08-14T19:18:32.534Z,100017.05
2022-08-14T19:21:26.802Z,100015.98
2022-08-14T19:24:29.919Z,100013.67
2022-08-14T19:30:23.435Z,100007.93
2022-08-14T19:33:03.756Z,100009.40
2022-08-14T19:36:00.327Z,100006.86
2022-08-14T19:38:57.207Z,100006.95
2022-08-14T19:41:34.076Z,99998.90
2022-08-14T19:44:12.853Z,100004.88
2022-08-14T19:47:01.151Z,100002.65
2022-08-14T19:50:24.379Z,99996.41
2022-08-14T19:52:39.498Z,99981.02
2022-08-14T19:55:20.285Z,99992.77
2022-08-14T19:57:58.887Z,99992.73
2022-08-14T20:00:31.759Z,99989.27
2022-08-14T20:03:10.815Z,99991.93
2022-08-14T20:05:45.837Z,99981.34
2022-08-14T20:10:58.231Z,99993.64
2022-08-14T20:12:00.830Z,99976.19
2022-08-14T20:14:27.975Z,99986.20
2022-08-14T20:17:06.806Z,99989.30
2022-08-14T20:19:41.596Z,99987.64
2022-08-14T20:22:36.588Z,99982.34
2022-08-14T20:25:20.410Z,99984.58
2022-08-14T20:27:58.622Z,99980.04
2022-08-14T20:30:35.046Z,99983.52
2022-08-14T20:33:11.760Z,99973.60
2022-08-14T20:35:52.336Z,99974.69
2022-08-14T20:38:32.360Z,99964.88
2022-08-14T20:41:12.449Z,99964.05
2022-08-14T20:44:06.577Z,99960.10
2022-08-14T20:46:42.338Z,99955.05
2022-08-14T20:49:19.297Z,99954.24
2022-08-14T20:52:00.403Z,99953.05
2022-08-14T20:54:50.505Z,99952.23
2022-08-14T20:57:24.110Z,99959.00
2022-08-14T20:59:57.245Z,99953.52
2022-08-14T21:02:50.716Z,99953.33
2022-08-14T21:05:34.073Z,99955.45
2022-08-14T21:08:22.163Z,99959.53
2022-08-14T21:10:58.850Z,99957.23
2022-08-14T21:14:20.622Z,99961.08
2022-08-14T21:16:36.758Z,99960.64
2022-08-14T21:19:10.146Z,99959.16
2022-08-14T21:21:54.837Z,99957.18
2022-08-14T21:24:40.155Z,99954.94
2022-08-14T21:27:22.008Z,99953.11
2022-08-14T21:29:56.560Z,99956.39
2022-08-14T21:32:47.291Z,99954.52
2022-08-14T21:35:30.419Z,99963.30
2022-08-14T21:38:02.886Z,99964.34
2022-08-14T21:40:42.445Z,99964.48
2022-08-14T21:43:21.182Z,99969.44
2022-08-14T21:45:58.768Z,99967.54
2022-08-14T21:48:34.021Z,99969.64
2022-08-14T21:51:53.674Z,99974.25
2022-08-14T21:54:01.312Z,99983.04
2022-08-14T21:56:40.853Z,99981.80
2022-08-14T21:59:34.126Z,99976.14
2022-08-14T22:02:09.425Z,99959.65
2022-08-14T22:05:03.558Z,99975.80
2022-08-14T22:07:36.903Z,99971.04
2022-08-14T22:10:14.220Z,99968.19
2022-08-14T22:13:00.464Z,99969.98
2022-08-14T22:15:35.539Z,99969.44
2022-08-14T22:18:20.664Z,99962.96
2022-08-14T22:20:56.622Z,99963.83
2022-08-14T22:23:29.936Z,99958.86
2022-08-14T22:26:05.081Z,99958.23
2022-08-14T22:28:37.343Z,99954.86
2022-08-14T22:31:22.230Z,99956.30
2022-08-14T22:33:58.019Z,99954.34
2022-08-14T22:36:50.484Z,99950.04
2022-08-14T22:40:15.339Z,99934.63
2022-08-14T22:42:19.382Z,99940.50
2022-08-14T22:44:56.693Z,99934.28
2022-08-14T22:47:40.278Z,99930.84
2022-08-14T22:50:32.127Z,99930.65
2022-08-14T22:53:07.532Z,99933.48
2022-08-14T22:55:42.400Z,99935.15
2022-08-14T22:58:16.999Z,99937.63
2022-08-14T23:00:49.888Z,99937.59
2022-08-14T23:03:23.472Z,99933.08
2022-08-14T23:05:55.737Z,99931.83
2022-08-14T23:08:58.607Z,99933.42
2022-08-14T23:11:20.349Z,99922.52
2022-08-14T23:13:54.861Z,99920.69
2022-08-14T23:16:27.189Z,99920.88
2022-08-14T23:18:59.749Z,99922.27
2022-08-14T23:21:31.793Z,99916.27
2022-08-14T23:24:06.403Z,99917.81
2022-08-14T23:26:47.792Z,99915.42
2022-08-14T23:29:24.913Z,99913.15
2022-08-14T23:31:59.123Z,99910.24
2022-08-14T23:34:31.645Z,99908.09
2022-08-14T23:37:04.723Z,99903.32
2022-08-14T23:39:39.097Z,99903.02
2022-08-14T23:42:12.620Z,99902.40
2022-08-14T23:44:50.349Z,99899.70
2022-08-14T23:47:26.091Z,99897.27
2022-08-14T23:50:04.005Z,99895.89
2022-08-14T23:52:55.609Z,99889.69
2022-08-14T23:55:34.970Z,99892.15
2022-08-14T23:58:07.813Z,99889.13
